createdAt,value
2019-01-26T00:01:44.798Z,10.80
2019-01-26T00:04:15.308Z,11.40
2019-01-26T00:06:46.178Z,12.05
2019-01-26T00:09:14.001Z,11.40
2019-01-26T00:11:41.829Z,11.75
2019-01-26T00:14:09.790Z,11.18
2019-01-26T00:16:38.957Z,11.08
2019-01-26T00:19:06.640Z,11.08
2019-01-26T00:21:34.421Z,10.05
2019-01-26T00:24:05.761Z,12.65
2019-01-26T00:26:36.398Z,10.08
2019-01-26T00:29:04.303Z,10.72
2019-01-26T00:31:33.842Z,11.57
2019-01-26T00:34:01.542Z,13.03
2019-01-26T00:36:29.362Z,13.20
2019-01-26T00:38:57.353Z,13.10
2019-01-26T00:41:25.076Z,12.45
2019-01-26T00:43:58.682Z,13.20
2019-01-26T00:46:28.520Z,12.65
2019-01-26T00:48:55.783Z,12.83
2019-01-26T00:51:23.543Z,8.58
2019-01-26T00:53:51.287Z,12.90
2019-01-26T00:56:19.082Z,13.25
2019-01-26T00:58:46.769Z,12.85
2019-01-26T01:01:15.947Z,14.23
2019-01-26T01:03:45.066Z,12.40
2019-01-26T01:06:12.829Z,11.75
2019-01-26T01:08:41.284Z,12.70
2019-01-26T01:11:08.891Z,12.80
2019-01-26T01:13:37.654Z,12.50
2019-01-26T01:16:05.379Z,9.08
2019-01-26T01:18:33.689Z,11.80
2019-01-26T01:21:03.873Z,12.15
2019-01-26T01:23:31.592Z,11.33
2019-01-26T01:25:59.465Z,12.28
2019-01-26T01:28:27.113Z,11.03
2019-01-26T01:30:54.821Z,10.53
2019-01-26T01:33:22.563Z,8.15
2019-01-26T01:35:50.350Z,9.65
2019-01-26T01:38:20.140Z,10.25
2019-01-26T01:40:48.123Z,9.45
2019-01-26T01:43:15.793Z,8.08
2019-01-26T01:45:44.721Z,9.43
2019-01-26T01:48:12.449Z,8.45
2019-01-26T01:50:41.280Z,8.05
2019-01-26T01:53:10.445Z,5.90
2019-01-26T01:55:41.787Z,9.18
2019-01-26T01:58:09.453Z,8.60
2019-01-26T02:00:37.441Z,10.08
2019-01-26T02:03:07.396Z,8.68
2019-01-26T02:05:34.977Z,8.60
2019-01-26T02:08:03.023Z,9.70
2019-01-26T02:10:30.698Z,9.58
2019-01-26T02:12:58.229Z,9.20
2019-01-26T02:15:25.925Z,9.93
2019-01-26T02:17:53.825Z,11.43
2019-01-26T02:20:22.230Z,9.38
2019-01-26T02:22:50.391Z,10.35
2019-01-26T02:25:24.246Z,8.00
2019-01-26T02:27:51.877Z,9.85
2019-01-26T02:30:24.605Z,9.88
2019-01-26T02:32:52.235Z,12.07
2019-01-26T02:35:21.346Z,9.83
2019-01-26T02:37:49.002Z,11.53
2019-01-26T02:40:17.095Z,10.85
2019-01-26T02:42:44.798Z,12.13
2019-01-26T02:45:14.265Z,10.53
2019-01-26T02:47:42.021Z,11.63
2019-01-26T02:50:12.235Z,11.63
2019-01-26T02:52:39.947Z,10.82
2019-01-26T02:55:07.875Z,11.68
2019-01-26T02:57:35.724Z,12.28
2019-01-26T03:00:07.359Z,12.10
2019-01-26T03:02:36.300Z,12.37
2019-01-26T03:05:06.139Z,11.57
2019-01-26T03:07:37.452Z,11.40
2019-01-26T03:10:06.542Z,11.18
2019-01-26T03:12:35.233Z,9.48
2019-01-26T03:15:19.152Z,10.53
2019-01-26T03:17:46.766Z,10.15
2019-01-26T03:20:15.203Z,9.20
2019-01-26T03:22:43.538Z,7.45
2019-01-26T03:25:11.382Z,8.40
2019-01-26T03:27:39.320Z,6.28
2019-01-26T03:30:10.872Z,7.87
2019-01-26T03:32:38.531Z,8.88
2019-01-26T03:35:06.377Z,7.72
2019-01-26T03:37:34.103Z,6.60
2019-01-26T03:40:01.743Z,7.70
2019-01-26T03:42:29.436Z,7.42
2019-01-26T03:44:57.173Z,7.53
2019-01-26T03:47:24.850Z,8.23
2019-01-26T03:49:53.687Z,8.07
2019-01-26T03:52:21.826Z,8.25
2019-01-26T03:54:49.483Z,8.37
2019-01-26T03:57:18.485Z,7.53
2019-01-26T03:59:47.767Z,9.28
2019-01-26T04:02:15.433Z,8.38
2019-01-26T04:04:44.915Z,7.40
2019-01-26T04:07:12.574Z,7.12
2019-01-26T04:09:40.360Z,8.55
2019-01-26T04:12:08.082Z,7.67
2019-01-26T04:14:35.987Z,8.70
2019-01-26T04:17:04.778Z,8.70
2019-01-26T04:19:32.424Z,8.93
2019-01-26T04:22:00.411Z,8.73
2019-01-26T04:24:28.211Z,8.13
2019-01-26T04:26:58.126Z,7.40
2019-01-26T04:29:27.507Z,8.00
2019-01-26T04:31:55.817Z,8.70
2019-01-26T04:34:23.446Z,8.83
2019-01-26T04:36:51.266Z,8.27
2019-01-26T04:39:18.871Z,7.62
2019-01-26T04:41:48.402Z,9.20
2019-01-26T04:44:16.492Z,8.70
2019-01-26T04:46:44.058Z,9.18
2019-01-26T04:49:11.933Z,8.40
2019-01-26T04:51:41.153Z,9.53
2019-01-26T04:54:08.805Z,8.77
2019-01-26T04:56:38.272Z,7.23
2019-01-26T04:59:05.977Z,9.33
2019-01-26T05:01:35.198Z,8.37
2019-01-26T05:04:03.102Z,9.05
2019-01-26T05:06:30.771Z,8.93
2019-01-26T05:08:58.511Z,11.67
2019-01-26T05:11:27.861Z,7.53
2019-01-26T05:13:55.683Z,7.50
2019-01-26T05:16:23.430Z,7.10
2019-01-26T05:18:54.354Z,6.70
2019-01-26T05:21:23.351Z,6.33
2019-01-26T05:23:51.276Z,6.60
2019-01-26T05:26:19.130Z,5.20
2019-01-26T05:28:47.203Z,6.08
2019-01-26T05:31:18.968Z,6.22
2019-01-26T05:33:46.729Z,6.37
2019-01-26T05:36:14.385Z,6.43
2019-01-26T05:38:43.032Z,6.50
2019-01-26T05:41:11.033Z,5.72
2019-01-26T05:43:38.810Z,8.17
2019-01-26T05:46:14.128Z,7.53
2019-01-26T05:48:41.934Z,6.80
2019-01-26T05:51:11.574Z,6.92
2019-01-26T05:53:39.183Z,7.53
2019-01-26T05:56:07.915Z,7.95
2019-01-26T05:58:35.541Z,7.08
2019-01-26T06:01:03.288Z,7.05
2019-01-26T06:03:32.430Z,7.90
2019-01-26T06:06:00.430Z,7.30
2019-01-26T06:08:29.281Z,7.00
2019-01-26T06:10:58.443Z,7.95
2019-01-26T06:13:26.113Z,6.77
2019-01-26T06:15:54.982Z,7.17
2019-01-26T06:18:22.983Z,7.13
2019-01-26T06:20:50.899Z,7.30
2019-01-26T06:23:18.536Z,6.37
2019-01-26T06:25:58.084Z,7.05
2019-01-26T06:28:17.814Z,7.23
2019-01-26T06:30:47.293Z,7.30
2019-01-26T06:33:17.045Z,6.37
2019-01-26T06:35:44.626Z,7.15
2019-01-26T06:38:12.253Z,7.27
2019-01-26T06:40:40.118Z,6.23
2019-01-26T06:43:07.820Z,6.73
2019-01-26T06:45:35.561Z,7.10
2019-01-26T06:48:05.478Z,6.90
2019-01-26T06:50:35.008Z,7.27
2019-01-26T06:53:02.812Z,7.10
2019-01-26T06:55:31.067Z,6.60
2019-01-26T06:57:59.919Z,5.93
2019-01-26T07:00:31.166Z,6.80
2019-01-26T07:02:59.197Z,7.55
2019-01-26T07:05:56.545Z,7.03
2019-01-26T07:08:24.629Z,6.23
2019-01-26T07:10:52.337Z,6.47
2019-01-26T07:13:21.926Z,7.13
2019-01-26T07:15:58.838Z,6.27
2019-01-26T07:18:26.511Z,6.00
2019-01-26T07:20:54.090Z,5.90
2019-01-26T07:23:23.725Z,5.87
2019-01-26T07:25:51.726Z,6.03
2019-01-26T07:28:20.876Z,5.07
2019-01-26T07:30:48.645Z,5.07
2019-01-26T07:33:16.310Z,5.78
2019-01-26T07:35:47.252Z,5.37
2019-01-26T07:38:14.933Z,5.83
2019-01-26T07:40:42.786Z,4.87
2019-01-26T07:43:10.572Z,5.07
2019-01-26T07:45:39.613Z,6.00
2019-01-26T07:48:09.195Z,5.27
2019-01-26T07:50:42.888Z,5.73
2019-01-26T07:53:12.301Z,5.80
2019-01-26T07:55:40.103Z,6.50
2019-01-26T07:58:09.246Z,6.90
2019-01-26T08:00:37.229Z,5.77
2019-01-26T08:03:05.099Z,6.03
2019-01-26T08:05:34.882Z,6.70
2019-01-26T08:08:02.832Z,5.90
2019-01-26T08:10:31.053Z,6.60
2019-01-26T08:12:59.171Z,6.20
2019-01-26T08:15:35.018Z,6.30
2019-01-26T08:18:03.622Z,6.30
2019-01-26T08:20:31.422Z,6.50
2019-01-26T08:23:00.277Z,6.20
2019-01-26T08:25:30.331Z,5.17
2019-01-26T08:27:58.242Z,6.77
2019-01-26T08:30:26.019Z,6.10
2019-01-26T08:32:54.050Z,6.37
2019-01-26T08:35:23.059Z,6.63
2019-01-26T08:37:52.744Z,6.67
2019-01-26T08:40:20.845Z,6.93
2019-01-26T08:42:48.613Z,6.67
2019-01-26T08:45:16.292Z,6.27
2019-01-26T08:47:44.017Z,6.47
2019-01-26T08:50:17.177Z,6.53
2019-01-26T08:52:45.928Z,6.30
2019-01-26T08:55:18.319Z,6.20
2019-01-26T08:57:46.152Z,7.27
2019-01-26T09:00:18.000Z,6.63
2019-01-26T09:03:08.196Z,6.33
2019-01-26T09:05:45.167Z,6.00
2019-01-26T09:08:12.968Z,5.70
2019-01-26T09:10:43.355Z,5.77
2019-01-26T09:13:11.987Z,6.13
2019-01-26T09:15:41.526Z,6.50
2019-01-26T09:18:15.496Z,6.33
2019-01-26T09:20:45.473Z,6.93
2019-01-26T09:23:13.462Z,6.20
2019-01-26T09:25:41.641Z,7.35
2019-01-26T09:28:10.026Z,8.00
2019-01-26T09:30:37.917Z,6.40
2019-01-26T09:33:07.026Z,6.53
2019-01-26T09:35:35.652Z,6.50
2019-01-26T09:38:03.742Z,6.57
2019-01-26T09:40:31.884Z,6.83
2019-01-26T09:43:04.740Z,8.53
2019-01-26T09:45:32.720Z,6.33
2019-01-26T09:48:00.447Z,6.90
2019-01-26T09:50:27.977Z,6.90
2019-01-26T09:52:56.761Z,7.13
2019-01-26T09:55:24.717Z,7.47
2019-01-26T09:57:52.585Z,6.67
2019-01-26T10:00:20.370Z,7.03
2019-01-26T10:02:48.161Z,6.87
2019-01-26T10:05:16.277Z,7.50
2019-01-26T10:07:43.926Z,7.73
2019-01-26T10:10:11.776Z,8.30
2019-01-26T10:12:39.411Z,7.93
2019-01-26T10:15:09.555Z,8.77
2019-01-26T10:17:37.532Z,8.43
2019-01-26T10:20:08.239Z,8.50
2019-01-26T10:22:36.071Z,7.10
2019-01-26T10:25:04.636Z,8.50
2019-01-26T10:27:33.072Z,8.63
2019-01-26T10:30:00.815Z,7.77
2019-01-26T10:32:30.247Z,8.70
2019-01-26T10:34:58.010Z,7.30
2019-01-26T10:37:28.232Z,8.20
2019-01-26T10:39:56.788Z,7.43
2019-01-26T10:42:26.014Z,7.07
2019-01-26T10:44:57.281Z,7.67
2019-01-26T10:47:25.229Z,7.67
2019-01-26T10:49:52.981Z,7.90
2019-01-26T10:52:20.968Z,6.40
2019-01-26T10:54:49.242Z,7.23
2019-01-26T10:57:17.707Z,6.93
2019-01-26T10:59:45.774Z,8.40
2019-01-26T11:02:13.453Z,8.50
2019-01-26T11:04:50.381Z,8.37
2019-01-26T11:07:18.069Z,8.80
2019-01-26T11:09:46.133Z,9.23
2019-01-26T11:12:13.813Z,8.43
2019-01-26T11:14:43.614Z,8.63
2019-01-26T11:17:11.394Z,9.50
2019-01-26T11:19:40.882Z,9.13
2019-01-26T11:22:08.549Z,7.40
2019-01-26T11:24:36.280Z,9.80
2019-01-26T11:27:04.557Z,9.13
2019-01-26T11:29:32.261Z,9.33
2019-01-26T11:31:59.949Z,9.27
2019-01-26T11:34:27.770Z,9.30
2019-01-26T11:36:58.205Z,10.17
2019-01-26T11:39:26.546Z,10.37
2019-01-26T11:41:55.912Z,8.47
2019-01-26T11:44:23.811Z,8.90
2019-01-26T11:47:09.266Z,10.53
2019-01-26T11:49:38.765Z,10.97
2019-01-26T11:52:10.155Z,11.60
2019-01-26T11:55:16.646Z,11.53
2019-01-26T11:57:44.626Z,11.57
2019-01-26T12:00:39.229Z,11.80
2019-01-26T12:03:26.512Z,10.30
2019-01-26T12:06:01.401Z,11.07
2019-01-26T12:08:29.297Z,10.57
2019-01-26T12:10:57.267Z,9.93
2019-01-26T12:13:24.934Z,10.90
2019-01-26T12:15:52.741Z,10.13
2019-01-26T12:18:20.456Z,10.10
2019-01-26T12:20:51.460Z,10.47
2019-01-26T12:23:19.687Z,11.23
2019-01-26T12:25:50.326Z,10.33
2019-01-26T12:28:18.207Z,9.17
2019-01-26T12:30:46.274Z,9.67
2019-01-26T12:33:16.459Z,10.00
2019-01-26T12:35:44.379Z,9.33
2019-01-26T12:38:12.079Z,9.27
2019-01-26T12:40:39.796Z,9.30
2019-01-26T12:43:07.810Z,9.93
2019-01-26T12:45:35.708Z,9.13
2019-01-26T12:48:11.875Z,9.30
2019-01-26T12:50:39.738Z,8.67
2019-01-26T12:53:07.344Z,9.97
2019-01-26T12:55:35.271Z,10.83
2019-01-26T12:58:03.096Z,9.73
2019-01-26T13:00:33.813Z,10.53
2019-01-26T13:03:01.714Z,10.03
2019-01-26T13:05:29.420Z,9.57
2019-01-26T13:07:57.165Z,11.53
2019-01-26T13:10:28.814Z,10.53
2019-01-26T13:13:21.216Z,11.63
2019-01-26T13:15:48.966Z,10.83
2019-01-26T13:18:16.784Z,10.27
2019-01-26T13:20:44.510Z,9.23
2019-01-26T13:23:12.287Z,11.00
2019-01-26T13:25:39.899Z,11.10
2019-01-26T13:28:07.498Z,10.50
2019-01-26T13:30:35.305Z,10.57
2019-01-26T13:33:10.404Z,10.87
2019-01-26T13:35:38.910Z,9.53
2019-01-26T13:38:07.642Z,9.37
2019-01-26T13:40:35.426Z,9.30
2019-01-26T13:43:04.521Z,8.73
2019-01-26T13:45:33.659Z,9.30
2019-01-26T13:48:01.326Z,6.93
2019-01-26T13:50:29.203Z,7.50
2019-01-26T13:52:57.161Z,7.47
2019-01-26T13:55:24.881Z,6.73
2019-01-26T13:57:52.776Z,7.23
2019-01-26T14:00:23.970Z,6.87
2019-01-26T14:02:58.150Z,7.20
2019-01-26T14:05:25.873Z,7.90
2019-01-26T14:07:55.943Z,7.73
2019-01-26T14:10:24.097Z,7.50
2019-01-26T14:12:59.513Z,8.77
2019-01-26T14:15:27.642Z,9.03
2019-01-26T14:17:58.256Z,9.50
2019-01-26T14:20:27.205Z,10.07
2019-01-26T14:22:56.072Z,10.03
2019-01-26T14:25:24.053Z,10.03
2019-01-26T14:27:52.028Z,11.00
2019-01-26T14:30:34.245Z,10.27
2019-01-26T14:33:06.883Z,11.30
2019-01-26T14:35:34.845Z,11.17
2019-01-26T14:38:02.587Z,11.33
2019-01-26T14:40:33.054Z,11.53
2019-01-26T14:43:00.688Z,11.53
2019-01-26T14:45:29.275Z,11.07
2019-01-26T14:47:56.894Z,11.53
2019-01-26T14:50:24.618Z,10.90
2019-01-26T14:52:52.303Z,11.53
2019-01-26T14:55:21.462Z,11.60
2019-01-26T14:57:49.313Z,12.10
2019-01-26T15:00:22.550Z,10.93
2019-01-26T15:02:50.513Z,12.83
2019-01-26T15:05:27.829Z,11.97
2019-01-26T15:07:55.928Z,11.57
2019-01-26T15:10:23.572Z,11.27
2019-01-26T15:12:51.460Z,11.87
2019-01-26T15:15:19.580Z,11.93
2019-01-26T15:17:48.810Z,11.30
2019-01-26T15:20:21.956Z,12.20
2019-01-26T15:22:50.035Z,12.40
2019-01-26T15:25:18.767Z,10.90
2019-01-26T15:27:46.795Z,11.57
2019-01-26T15:30:19.767Z,11.40
2019-01-26T15:32:47.589Z,11.37
2019-01-26T15:35:16.166Z,10.83
2019-01-26T15:37:45.588Z,10.10
2019-01-26T15:40:15.395Z,10.10
2019-01-26T15:42:43.320Z,10.57
2019-01-26T15:45:17.033Z,11.53
2019-01-26T15:47:44.754Z,11.40
2019-01-26T15:50:13.418Z,11.13
2019-01-26T15:52:44.018Z,11.73
2019-01-26T15:55:14.242Z,10.80
2019-01-26T15:57:41.857Z,11.27
2019-01-26T16:00:20.974Z,11.23
2019-01-26T16:02:49.150Z,11.40
2019-01-26T16:05:17.050Z,10.23
2019-01-26T16:07:48.774Z,11.10
2019-01-26T16:10:18.737Z,11.73
2019-01-26T16:12:46.482Z,13.07
2019-01-26T16:15:23.197Z,12.73
2019-01-26T16:17:53.447Z,13.87
2019-01-26T16:20:21.458Z,13.30
2019-01-26T16:22:49.512Z,13.03
2019-01-26T16:25:17.410Z,13.20
2019-01-26T16:27:45.446Z,13.43
2019-01-26T16:30:15.689Z,13.00
2019-01-26T16:32:43.515Z,15.27
2019-01-26T16:35:12.085Z,12.73
2019-01-26T16:37:39.872Z,13.83
2019-01-26T16:40:09.501Z,15.47
2019-01-26T16:42:39.095Z,15.40
2019-01-26T16:45:10.493Z,14.07
2019-01-26T16:47:38.301Z,15.00
2019-01-26T16:50:08.904Z,15.87
2019-01-26T16:52:36.920Z,15.20
2019-01-26T16:55:05.837Z,14.77
2019-01-26T16:57:35.325Z,15.50
2019-01-26T17:00:05.124Z,15.53
2019-01-26T17:02:32.693Z,15.30
2019-01-26T17:05:01.083Z,16.10
2019-01-26T17:07:31.498Z,14.97
2019-01-26T17:09:59.139Z,15.13
2019-01-26T17:12:28.557Z,13.20
2019-01-26T17:14:56.419Z,14.73
2019-01-26T17:17:27.927Z,15.03
2019-01-26T17:19:58.718Z,15.03
2019-01-26T17:22:26.575Z,14.67
2019-01-26T17:24:54.338Z,14.43
2019-01-26T17:27:24.126Z,14.00
2019-01-26T17:29:52.113Z,13.27
2019-01-26T17:32:24.704Z,11.83
2019-01-26T17:34:52.672Z,12.30
2019-01-26T17:37:20.627Z,11.63
2019-01-26T17:39:51.265Z,10.17
2019-01-26T17:42:19.029Z,10.20
2019-01-26T17:44:46.746Z,9.67
2019-01-26T17:47:14.882Z,7.80
2019-01-26T17:49:42.815Z,8.10
2019-01-26T17:52:10.587Z,8.10
2019-01-26T17:54:41.411Z,7.40
2019-01-26T17:57:09.483Z,8.17
2019-01-26T17:59:42.577Z,6.67
2019-01-26T18:02:09.954Z,6.10
2019-01-26T18:04:39.859Z,7.03
2019-01-26T18:07:07.768Z,6.90
2019-01-26T18:09:36.018Z,7.20
2019-01-26T18:12:04.113Z,7.10
2019-01-26T18:14:32.003Z,6.00
2019-01-26T18:17:01.114Z,7.77
2019-01-26T18:19:28.837Z,8.23
2019-01-26T18:21:59.610Z,8.30
2019-01-26T18:24:30.069Z,8.00
2019-01-26T18:27:02.299Z,8.83
2019-01-26T18:29:35.034Z,9.83
2019-01-26T18:32:04.308Z,8.77
2019-01-26T18:34:31.999Z,9.50
2019-01-26T18:36:59.937Z,8.10
2019-01-26T18:39:28.101Z,9.17
2019-01-26T18:41:55.832Z,8.20
2019-01-26T18:44:26.633Z,9.57
2019-01-26T18:46:59.191Z,9.70
2019-01-26T18:49:29.528Z,8.20
2019-01-26T18:52:00.583Z,9.27
2019-01-26T18:54:33.763Z,9.50
2019-01-26T18:57:01.608Z,8.50
2019-01-26T18:59:29.237Z,8.80
2019-01-26T19:01:58.982Z,9.50
2019-01-26T19:04:40.229Z,9.20
2019-01-26T19:07:10.433Z,10.80
2019-01-26T19:09:42.609Z,10.53
2019-01-26T19:12:10.177Z,11.23
2019-01-26T19:14:40.580Z,10.40
2019-01-26T19:17:10.650Z,10.03
2019-01-26T19:19:39.791Z,11.17
2019-01-26T19:22:10.019Z,10.00
2019-01-26T19:24:37.698Z,9.93
2019-01-26T19:27:05.961Z,10.47
2019-01-26T19:29:35.423Z,10.53
2019-01-26T19:32:03.657Z,9.73
2019-01-26T19:34:34.131Z,9.37
2019-01-26T19:37:02.095Z,9.90
2019-01-26T19:39:30.697Z,9.43
2019-01-26T19:42:01.533Z,8.87
2019-01-26T19:44:29.196Z,9.43
2019-01-26T19:47:00.605Z,8.73
2019-01-26T19:49:32.201Z,8.10
2019-01-26T19:52:02.392Z,8.33
2019-01-26T19:54:39.605Z,8.20
2019-01-26T19:57:10.460Z,8.03
2019-01-26T19:59:38.055Z,7.67
2019-01-26T20:02:08.723Z,7.93
2019-01-26T20:04:36.771Z,7.80
2019-01-26T20:07:06.201Z,7.83
2019-01-26T20:09:33.891Z,7.33
2019-01-26T20:12:03.918Z,7.33
2019-01-26T20:14:31.572Z,7.67
2019-01-26T20:17:02.158Z,7.97
2019-01-26T20:19:30.566Z,8.40
2019-01-26T20:21:58.361Z,7.80
2019-01-26T20:24:26.225Z,7.87
2019-01-26T20:26:54.167Z,8.27
2019-01-26T20:29:21.922Z,8.10
2019-01-26T20:31:50.022Z,7.23
2019-01-26T20:34:18.270Z,7.43
2019-01-26T20:36:46.112Z,6.73
2019-01-26T20:39:14.128Z,6.67
2019-01-26T20:41:42.424Z,6.93
2019-01-26T20:44:10.080Z,7.20
2019-01-26T20:46:38.006Z,6.10
2019-01-26T20:49:05.939Z,5.10
2019-01-26T20:51:33.650Z,7.00
2019-01-26T20:54:01.454Z,7.63
2019-01-26T20:56:29.387Z,3.93
2019-01-26T20:58:57.642Z,6.00
2019-01-26T21:01:26.060Z,6.03
2019-01-26T21:03:53.754Z,5.63
2019-01-26T21:06:21.581Z,6.50
2019-01-26T21:08:49.635Z,7.17
2019-01-26T21:11:26.347Z,7.53
2019-01-26T21:13:54.017Z,7.07
2019-01-26T21:16:22.039Z,6.83
2019-01-26T21:18:49.850Z,6.50
2019-01-26T21:21:20.067Z,7.53
2019-01-26T21:23:49.633Z,7.07
2019-01-26T21:26:23.339Z,6.80
2019-01-26T21:29:04.731Z,6.33
2019-01-26T21:31:32.908Z,6.90
2019-01-26T21:34:02.673Z,6.97
2019-01-26T21:36:31.328Z,6.30
2019-01-26T21:39:08.448Z,6.20
2019-01-26T21:41:38.031Z,6.50
2019-01-26T21:44:13.888Z,6.70
2019-01-26T21:46:44.855Z,6.43
2019-01-26T21:49:14.452Z,5.90
2019-01-26T21:51:50.361Z,6.90
2019-01-26T21:54:28.286Z,6.63
2019-01-26T21:57:08.588Z,6.67
2019-01-26T21:59:36.873Z,5.90
2019-01-26T22:02:24.754Z,6.37
2019-01-26T22:04:52.862Z,5.03
2019-01-26T22:07:22.185Z,6.50
2019-01-26T22:09:59.548Z,6.40
2019-01-26T22:12:33.728Z,6.53
2019-01-26T22:15:08.712Z,5.77
2019-01-26T22:17:41.003Z,6.30
2019-01-26T22:20:12.246Z,5.10
2019-01-26T22:22:40.020Z,6.33
2019-01-26T22:25:09.834Z,6.73
2019-01-26T22:27:38.528Z,5.83
2019-01-26T22:30:22.540Z,5.97
2019-01-26T22:32:50.689Z,6.20
2019-01-26T22:35:19.700Z,6.23
2019-01-26T22:37:48.050Z,6.77
2019-01-26T22:40:27.090Z,6.03
2019-01-26T22:42:57.258Z,6.20
2019-01-26T22:45:25.682Z,6.33
2019-01-26T22:47:59.342Z,6.03
2019-01-26T22:50:27.126Z,6.13
2019-01-26T22:52:57.451Z,6.57
2019-01-26T22:55:25.890Z,6.63
2019-01-26T22:57:53.894Z,5.93
2019-01-26T23:01:06.246Z,6.27
2019-01-26T23:04:04.189Z,6.30
2019-01-26T23:07:18.824Z,6.27
2019-01-26T23:10:20.469Z,6.50
2019-01-26T23:13:32.780Z,6.13
2019-01-26T23:16:53.425Z,6.03
2019-01-26T23:19:31.551Z,5.43
2019-01-26T23:22:44.162Z,5.43
2019-01-26T23:25:37.186Z,5.13
2019-01-26T23:28:32.175Z,6.27
2019-01-26T23:31:19.876Z,6.90
2019-01-26T23:33:49.275Z,7.37
2019-01-26T23:36:17.466Z,7.17
2019-01-26T23:38:45.432Z,6.37
2019-01-26T23:41:13.198Z,7.40
2019-01-26T23:43:41.738Z,6.00
2019-01-26T23:46:09.446Z,6.87
2019-01-26T23:48:38.032Z,6.40
2019-01-26T23:51:06.068Z,6.63
2019-01-26T23:53:33.763Z,6.67
2019-01-26T23:56:01.413Z,6.57
2019-01-26T23:58:29.304Z,6.50
